sensor_id;sensor_type;location;lat;lon;timestamp;temperature;humidity
5415;DHT22;2730;51.512;7.504;2023-03-23T00:00:51;11.60;99.90
5415;DHT22;2730;51.512;7.504;2023-03-23T00:03:19;11.50;99.90
5415;DHT22;2730;51.512;7.504;2023-03-23T00:05:46;11.60;99.90
5415;DHT22;2730;51.512;7.504;2023-03-23T00:08:17;11.50;99.90
5415;DHT22;2730;51.512;7.504;2023-03-23T00:10:48;11.60;99.90
5415;DHT22;2730;51.512;7.504;2023-03-23T00:13:15;11.50;99.90
5415;DHT22;2730;51.512;7.504;2023-03-23T00:15:45;11.50;99.90
5415;DHT22;2730;51.512;7.504;2023-03-23T00:18:14;11.50;99.90
5415;DHT22;2730;51.512;7.504;2023-03-23T00:20:47;11.50;99.90
5415;DHT22;2730;51.512;7.504;2023-03-23T00:23:14;11.60;99.90
5415;DHT22;2730;51.512;7.504;2023-03-23T00:25:46;11.60;99.90
5415;DHT22;2730;51.512;7.504;2023-03-23T00:28:14;11.50;99.90
5415;DHT22;2730;51.512;7.504;2023-03-23T00:30:41;11.50;99.90
5415;DHT22;2730;51.512;7.504;2023-03-23T00:33:10;11.50;99.90
5415;DHT22;2730;51.512;7.504;2023-03-23T00:35:38;11.50;99.90
5415;DHT22;2730;51.512;7.504;2023-03-23T00:38:05;11.50;99.90
5415;DHT22;2730;51.512;7.504;2023-03-23T00:40:32;11.60;99.90
5415;DHT22;2730;51.512;7.504;2023-03-23T00:43:02;11.50;99.90
5415;DHT22;2730;51.512;7.504;2023-03-23T00:45:30;11.50;99.90
5415;DHT22;2730;51.512;7.504;2023-03-23T00:47:57;11.50;99.90
5415;DHT22;2730;51.512;7.504;2023-03-23T00:50:27;11.60;99.90
5415;DHT22;2730;51.512;7.504;2023-03-23T00:52:54;11.60;99.90
5415;DHT22;2730;51.512;7.504;2023-03-23T00:55:22;11.60;99.90
5415;DHT22;2730;51.512;7.504;2023-03-23T00:57:49;11.60;99.90
5415;DHT22;2730;51.512;7.504;2023-03-23T01:00:18;11.60;99.90
5415;DHT22;2730;51.512;7.504;2023-03-23T01:02:46;11.60;99.90
5415;DHT22;2730;51.512;7.504;2023-03-23T01:05:13;11.50;99.90
5415;DHT22;2730;51.512;7.504;2023-03-23T01:07:41;11.60;99.90
5415;DHT22;2730;51.512;7.504;2023-03-23T01:10:11;11.60;99.90
5415;DHT22;2730;51.512;7.504;2023-03-23T01:12:42;11.60;99.90
5415;DHT22;2730;51.512;7.504;2023-03-23T01:15:09;11.70;99.90
5415;DHT22;2730;51.512;7.504;2023-03-23T01:17:42;11.70;99.90
5415;DHT22;2730;51.512;7.504;2023-03-23T01:20:10;11.70;99.90
5415;DHT22;2730;51.512;7.504;2023-03-23T01:22:37;11.70;99.90
5415;DHT22;2730;51.512;7.504;2023-03-23T01:25:04;11.70;99.90
5415;DHT22;2730;51.512;7.504;2023-03-23T01:27:31;11.70;99.90
5415;DHT22;2730;51.512;7.504;2023-03-23T01:29:58;11.70;99.90
5415;DHT22;2730;51.512;7.504;2023-03-23T01:32:25;11.80;99.90
5415;DHT22;2730;51.512;7.504;2023-03-23T01:34:53;11.80;99.90
5415;DHT22;2730;51.512;7.504;2023-03-23T01:37:20;11.80;99.90
5415;DHT22;2730;51.512;7.504;2023-03-23T01:39:52;11.90;99.90
5415;DHT22;2730;51.512;7.504;2023-03-23T01:42:20;11.80;99.90
5415;DHT22;2730;51.512;7.504;2023-03-23T01:47:57;11.80;99.90
5415;DHT22;2730;51.512;7.504;2023-03-23T01:50:28;11.70;99.90
5415;DHT22;2730;51.512;7.504;2023-03-23T01:52:58;11.60;99.90
5415;DHT22;2730;51.512;7.504;2023-03-23T01:55:26;11.60;99.90
5415;DHT22;2730;51.512;7.504;2023-03-23T01:57:54;11.60;99.90
5415;DHT22;2730;51.512;7.504;2023-03-23T02:00:22;11.50;99.90
5415;DHT22;2730;51.512;7.504;2023-03-23T02:02:49;11.50;99.90
5415;DHT22;2730;51.512;7.504;2023-03-23T02:05:22;11.50;99.90
5415;DHT22;2730;51.512;7.504;2023-03-23T02:07:52;11.40;99.90
5415;DHT22;2730;51.512;7.504;2023-03-23T02:10:19;11.50;99.90
5415;DHT22;2730;51.512;7.504;2023-03-23T02:12:46;11.50;99.90
5415;DHT22;2730;51.512;7.504;2023-03-23T02:15:13;11.50;99.90
5415;DHT22;2730;51.512;7.504;2023-03-23T02:17:46;11.40;99.90
5415;DHT22;2730;51.512;7.504;2023-03-23T02:20:29;11.50;99.90
5415;DHT22;2730;51.512;7.504;2023-03-23T02:23:17;11.40;99.90
5415;DHT22;2730;51.512;7.504;2023-03-23T02:25:55;11.50;99.90
5415;DHT22;2730;51.512;7.504;2023-03-23T02:28:39;11.50;99.90
5415;DHT22;2730;51.512;7.504;2023-03-23T02:31:36;11.60;99.90
5415;DHT22;2730;51.512;7.504;2023-03-23T02:34:11;11.60;99.90
5415;DHT22;2730;51.512;7.504;2023-03-23T02:36:44;11.60;99.90
5415;DHT22;2730;51.512;7.504;2023-03-23T02:39:14;11.60;99.90
5415;DHT22;2730;51.512;7.504;2023-03-23T02:41:46;11.60;99.90
5415;DHT22;2730;51.512;7.504;2023-03-23T02:44:14;11.50;99.90
5415;DHT22;2730;51.512;7.504;2023-03-23T02:46:42;11.60;99.90
5415;DHT22;2730;51.512;7.504;2023-03-23T02:49:13;11.60;99.90
5415;DHT22;2730;51.512;7.504;2023-03-23T02:51:44;11.60;99.90
5415;DHT22;2730;51.512;7.504;2023-03-23T02:54:13;11.60;99.90
5415;DHT22;2730;51.512;7.504;2023-03-23T02:56:41;11.50;99.90
5415;DHT22;2730;51.512;7.504;2023-03-23T02:59:09;11.50;99.90
5415;DHT22;2730;51.512;7.504;2023-03-23T03:01:58;11.50;99.90
5415;DHT22;2730;51.512;7.504;2023-03-23T03:04:28;11.40;99.90
5415;DHT22;2730;51.512;7.504;2023-03-23T03:07:43;11.50;99.90
5415;DHT22;2730;51.512;7.504;2023-03-23T03:10:18;11.40;99.90
5415;DHT22;2730;51.512;7.504;2023-03-23T03:12:55;11.30;99.90
5415;DHT22;2730;51.512;7.504;2023-03-23T03:15:27;11.30;99.90
5415;DHT22;2730;51.512;7.504;2023-03-23T03:18:03;11.30;99.90
5415;DHT22;2730;51.512;7.504;2023-03-23T03:20:34;11.30;99.90
5415;DHT22;2730;51.512;7.504;2023-03-23T03:23:04;11.40;99.90
5415;DHT22;2730;51.512;7.504;2023-03-23T03:25:33;11.30;99.90
5415;DHT22;2730;51.512;7.504;2023-03-23T03:28:01;11.40;99.90
5415;DHT22;2730;51.512;7.504;2023-03-23T03:30:30;11.30;99.90
5415;DHT22;2730;51.512;7.504;2023-03-23T03:32:58;11.40;99.90
5415;DHT22;2730;51.512;7.504;2023-03-23T03:35:29;11.40;99.90
5415;DHT22;2730;51.512;7.504;2023-03-23T03:38:05;11.40;99.90
5415;DHT22;2730;51.512;7.504;2023-03-23T03:40:31;11.30;99.90
5415;DHT22;2730;51.512;7.504;2023-03-23T03:42:58;11.30;99.90
5415;DHT22;2730;51.512;7.504;2023-03-23T03:45:25;11.30;99.90
5415;DHT22;2730;51.512;7.504;2023-03-23T03:47:52;11.30;99.90
5415;DHT22;2730;51.512;7.504;2023-03-23T03:50:18;11.30;99.90
5415;DHT22;2730;51.512;7.504;2023-03-23T03:52:45;11.30;99.90
5415;DHT22;2730;51.512;7.504;2023-03-23T03:55:13;11.30;99.90
5415;DHT22;2730;51.512;7.504;2023-03-23T03:57:42;11.30;99.90
5415;DHT22;2730;51.512;7.504;2023-03-23T04:00:10;11.30;99.90
5415;DHT22;2730;51.512;7.504;2023-03-23T04:02:41;11.40;99.90
5415;DHT22;2730;51.512;7.504;2023-03-23T04:05:08;11.40;99.90
5415;DHT22;2730;51.512;7.504;2023-03-23T04:07:37;11.50;99.90
5415;DHT22;2730;51.512;7.504;2023-03-23T04:10:06;11.50;99.90
5415;DHT22;2730;51.512;7.504;2023-03-23T04:12:35;11.50;99.90
5415;DHT22;2730;51.512;7.504;2023-03-23T04:15:02;11.50;99.90
5415;DHT22;2730;51.512;7.504;2023-03-23T04:17:29;11.50;99.90
5415;DHT22;2730;51.512;7.504;2023-03-23T04:19:56;11.60;99.90
5415;DHT22;2730;51.512;7.504;2023-03-23T04:22:25;11.50;99.90
5415;DHT22;2730;51.512;7.504;2023-03-23T04:24:56;11.60;99.90
5415;DHT22;2730;51.512;7.504;2023-03-23T04:27:24;11.60;99.90
5415;DHT22;2730;51.512;7.504;2023-03-23T04:29:55;11.60;99.90
5415;DHT22;2730;51.512;7.504;2023-03-23T04:32:24;11.60;99.90
5415;DHT22;2730;51.512;7.504;2023-03-23T04:34:54;11.60;99.90
5415;DHT22;2730;51.512;7.504;2023-03-23T04:37:21;11.60;99.90
5415;DHT22;2730;51.512;7.504;2023-03-23T04:39:51;11.60;99.90
5415;DHT22;2730;51.512;7.504;2023-03-23T04:42:27;11.60;99.90
5415;DHT22;2730;51.512;7.504;2023-03-23T04:44:55;11.60;99.90
5415;DHT22;2730;51.512;7.504;2023-03-23T04:47:23;11.60;99.90
5415;DHT22;2730;51.512;7.504;2023-03-23T04:49:50;11.60;99.90
5415;DHT22;2730;51.512;7.504;2023-03-23T04:52:18;11.60;99.90
5415;DHT22;2730;51.512;7.504;2023-03-23T04:54:45;11.50;99.90
5415;DHT22;2730;51.512;7.504;2023-03-23T04:57:13;11.60;99.90
5415;DHT22;2730;51.512;7.504;2023-03-23T04:59:41;11.60;99.90
5415;DHT22;2730;51.512;7.504;2023-03-23T05:02:10;11.60;99.90
5415;DHT22;2730;51.512;7.504;2023-03-23T05:04:38;11.60;99.90
5415;DHT22;2730;51.512;7.504;2023-03-23T05:07:06;11.60;99.90
5415;DHT22;2730;51.512;7.504;2023-03-23T05:09:33;11.60;99.90
5415;DHT22;2730;51.512;7.504;2023-03-23T05:12:04;11.60;99.90
5415;DHT22;2730;51.512;7.504;2023-03-23T05:14:31;11.60;99.90
5415;DHT22;2730;51.512;7.504;2023-03-23T05:16:58;11.60;99.90
5415;DHT22;2730;51.512;7.504;2023-03-23T05:19:26;11.60;99.90
5415;DHT22;2730;51.512;7.504;2023-03-23T05:21:53;11.60;99.90
5415;DHT22;2730;51.512;7.504;2023-03-23T05:24:20;11.70;99.90
5415;DHT22;2730;51.512;7.504;2023-03-23T05:26:47;11.60;99.90
5415;DHT22;2730;51.512;7.504;2023-03-23T05:29:17;11.60;99.90
5415;DHT22;2730;51.512;7.504;2023-03-23T05:31:44;11.60;99.90
5415;DHT22;2730;51.512;7.504;2023-03-23T05:34:11;11.60;99.90
5415;DHT22;2730;51.512;7.504;2023-03-23T05:36:39;11.60;99.90
5415;DHT22;2730;51.512;7.504;2023-03-23T05:39:06;11.70;99.90
5415;DHT22;2730;51.512;7.504;2023-03-23T05:41:35;11.70;99.90
5415;DHT22;2730;51.512;7.504;2023-03-23T05:44:03;11.70;99.90
5415;DHT22;2730;51.512;7.504;2023-03-23T05:46:29;11.60;99.90
5415;DHT22;2730;51.512;7.504;2023-03-23T05:48:56;11.60;99.90
5415;DHT22;2730;51.512;7.504;2023-03-23T05:51:23;11.60;99.90
5415;DHT22;2730;51.512;7.504;2023-03-23T05:53:51;11.70;99.90
5415;DHT22;2730;51.512;7.504;2023-03-23T05:56:18;11.70;99.90
5415;DHT22;2730;51.512;7.504;2023-03-23T05:58:45;11.70;99.90
5415;DHT22;2730;51.512;7.504;2023-03-23T06:01:12;11.70;99.90
5415;DHT22;2730;51.512;7.504;2023-03-23T06:03:39;11.70;99.90
5415;DHT22;2730;51.512;7.504;2023-03-23T06:06:06;11.70;99.90
5415;DHT22;2730;51.512;7.504;2023-03-23T06:08:35;11.80;99.90
5415;DHT22;2730;51.512;7.504;2023-03-23T06:11:04;11.70;99.90
5415;DHT22;2730;51.512;7.504;2023-03-23T06:13:31;11.80;99.90
5415;DHT22;2730;51.512;7.504;2023-03-23T06:15:58;11.80;99.90
5415;DHT22;2730;51.512;7.504;2023-03-23T06:18:25;11.80;99.90
5415;DHT22;2730;51.512;7.504;2023-03-23T06:20:54;11.90;99.90
5415;DHT22;2730;51.512;7.504;2023-03-23T06:23:20;11.90;99.90
5415;DHT22;2730;51.512;7.504;2023-03-23T06:25:47;11.90;99.90
5415;DHT22;2730;51.512;7.504;2023-03-23T06:28:15;11.90;99.90
5415;DHT22;2730;51.512;7.504;2023-03-23T06:30:42;11.90;99.90
5415;DHT22;2730;51.512;7.504;2023-03-23T06:33:09;11.90;99.90
5415;DHT22;2730;51.512;7.504;2023-03-23T06:35:36;12.00;99.90
5415;DHT22;2730;51.512;7.504;2023-03-23T06:38:03;12.10;99.90
5415;DHT22;2730;51.512;7.504;2023-03-23T06:40:30;12.10;99.90
5415;DHT22;2730;51.512;7.504;2023-03-23T06:42:57;12.10;99.90
5415;DHT22;2730;51.512;7.504;2023-03-23T06:45:26;12.20;99.90
5415;DHT22;2730;51.512;7.504;2023-03-23T06:47:52;12.30;99.90
5415;DHT22;2730;51.512;7.504;2023-03-23T06:50:19;12.30;99.90
5415;DHT22;2730;51.512;7.504;2023-03-23T06:52:47;12.40;99.90
5415;DHT22;2730;51.512;7.504;2023-03-23T06:55:14;12.40;99.90
5415;DHT22;2730;51.512;7.504;2023-03-23T06:57:42;12.50;99.90
5415;DHT22;2730;51.512;7.504;2023-03-23T07:00:10;12.60;99.90
5415;DHT22;2730;51.512;7.504;2023-03-23T07:02:40;12.60;99.90
5415;DHT22;2730;51.512;7.504;2023-03-23T07:05:07;12.70;99.90
5415;DHT22;2730;51.512;7.504;2023-03-23T07:07:35;12.70;99.90
5415;DHT22;2730;51.512;7.504;2023-03-23T07:10:03;12.70;99.90
5415;DHT22;2730;51.512;7.504;2023-03-23T07:12:31;12.80;99.90
5415;DHT22;2730;51.512;7.504;2023-03-23T07:14:58;12.90;99.90
5415;DHT22;2730;51.512;7.504;2023-03-23T07:17:25;12.90;99.90
5415;DHT22;2730;51.512;7.504;2023-03-23T07:19:54;13.00;99.90
5415;DHT22;2730;51.512;7.504;2023-03-23T07:22:20;13.00;99.90
5415;DHT22;2730;51.512;7.504;2023-03-23T07:24:47;13.00;99.90
5415;DHT22;2730;51.512;7.504;2023-03-23T07:27:14;13.10;99.90
5415;DHT22;2730;51.512;7.504;2023-03-23T07:29:41;13.00;99.90
5415;DHT22;2730;51.512;7.504;2023-03-23T07:32:10;13.10;99.90
5415;DHT22;2730;51.512;7.504;2023-03-23T07:34:38;13.00;99.90
5415;DHT22;2730;51.512;7.504;2023-03-23T07:37:06;13.10;99.90
5415;DHT22;2730;51.512;7.504;2023-03-23T07:39:33;13.10;99.90
5415;DHT22;2730;51.512;7.504;2023-03-23T07:42:00;13.10;99.90
5415;DHT22;2730;51.512;7.504;2023-03-23T07:44:27;13.20;99.90
5415;DHT22;2730;51.512;7.504;2023-03-23T07:46:54;13.40;99.90
5415;DHT22;2730;51.512;7.504;2023-03-23T07:49:21;13.40;99.90
5415;DHT22;2730;51.512;7.504;2023-03-23T07:51:48;13.40;99.90
5415;DHT22;2730;51.512;7.504;2023-03-23T07:54:16;13.50;99.90
5415;DHT22;2730;51.512;7.504;2023-03-23T07:56:43;13.40;99.90
5415;DHT22;2730;51.512;7.504;2023-03-23T07:59:11;13.50;99.90
5415;DHT22;2730;51.512;7.504;2023-03-23T08:01:37;13.50;99.90
5415;DHT22;2730;51.512;7.504;2023-03-23T08:04:05;13.50;99.90
5415;DHT22;2730;51.512;7.504;2023-03-23T08:06:33;13.40;99.90
5415;DHT22;2730;51.512;7.504;2023-03-23T08:09:01;13.40;99.90
5415;DHT22;2730;51.512;7.504;2023-03-23T08:11:33;13.50;99.90
5415;DHT22;2730;51.512;7.504;2023-03-23T08:14:00;13.50;99.90
5415;DHT22;2730;51.512;7.504;2023-03-23T08:16:26;13.50;99.90
5415;DHT22;2730;51.512;7.504;2023-03-23T08:18:53;13.50;99.90
5415;DHT22;2730;51.512;7.504;2023-03-23T08:21:20;13.60;99.90
5415;DHT22;2730;51.512;7.504;2023-03-23T08:23:48;13.60;99.90
5415;DHT22;2730;51.512;7.504;2023-03-23T08:26:15;13.60;99.90
5415;DHT22;2730;51.512;7.504;2023-03-23T08:28:44;13.60;99.90
5415;DHT22;2730;51.512;7.504;2023-03-23T08:31:13;13.80;99.90
5415;DHT22;2730;51.512;7.504;2023-03-23T08:33:40;13.70;99.90
5415;DHT22;2730;51.512;7.504;2023-03-23T08:36:08;13.70;99.90
5415;DHT22;2730;51.512;7.504;2023-03-23T08:38:35;13.80;99.90
5415;DHT22;2730;51.512;7.504;2023-03-23T08:41:04;13.90;99.90
5415;DHT22;2730;51.512;7.504;2023-03-23T08:43:33;13.90;99.90
5415;DHT22;2730;51.512;7.504;2023-03-23T08:46:02;13.90;99.90
5415;DHT22;2730;51.512;7.504;2023-03-23T08:48:35;14.00;99.90
5415;DHT22;2730;51.512;7.504;2023-03-23T08:51:02;14.20;99.90
5415;DHT22;2730;51.512;7.504;2023-03-23T08:53:29;14.20;99.90
5415;DHT22;2730;51.512;7.504;2023-03-23T08:56:02;14.30;99.90
5415;DHT22;2730;51.512;7.504;2023-03-23T08:58:29;14.30;99.90
5415;DHT22;2730;51.512;7.504;2023-03-23T09:00:56;14.30;99.90
5415;DHT22;2730;51.512;7.504;2023-03-23T09:03:24;14.30;99.90
5415;DHT22;2730;51.512;7.504;2023-03-23T09:05:51;14.30;99.90
5415;DHT22;2730;51.512;7.504;2023-03-23T09:08:19;14.30;99.90
5415;DHT22;2730;51.512;7.504;2023-03-23T09:10:46;14.30;99.90
5415;DHT22;2730;51.512;7.504;2023-03-23T09:13:14;14.40;99.90
5415;DHT22;2730;51.512;7.504;2023-03-23T09:15:41;14.40;99.90
5415;DHT22;2730;51.512;7.504;2023-03-23T09:18:08;14.70;99.90
5415;DHT22;2730;51.512;7.504;2023-03-23T09:20:36;14.80;99.90
5415;DHT22;2730;51.512;7.504;2023-03-23T09:23:03;15.00;99.90
5415;DHT22;2730;51.512;7.504;2023-03-23T09:25:30;15.10;99.90
5415;DHT22;2730;51.512;7.504;2023-03-23T09:27:58;15.30;99.90
5415;DHT22;2730;51.512;7.504;2023-03-23T09:30:27;15.30;99.90
5415;DHT22;2730;51.512;7.504;2023-03-23T09:32:54;15.10;99.90
5415;DHT22;2730;51.512;7.504;2023-03-23T09:35:22;14.90;99.90
5415;DHT22;2730;51.512;7.504;2023-03-23T09:37:51;15.00;99.90
5415;DHT22;2730;51.512;7.504;2023-03-23T09:40:20;15.00;99.90
5415;DHT22;2730;51.512;7.504;2023-03-23T09:45:53;14.90;99.90
5415;DHT22;2730;51.512;7.504;2023-03-23T09:48:31;14.90;99.90
5415;DHT22;2730;51.512;7.504;2023-03-23T09:51:04;14.80;99.90
5415;DHT22;2730;51.512;7.504;2023-03-23T09:53:38;14.70;99.90
5415;DHT22;2730;51.512;7.504;2023-03-23T09:56:10;14.80;99.90
5415;DHT22;2730;51.512;7.504;2023-03-23T09:58:43;14.90;99.90
5415;DHT22;2730;51.512;7.504;2023-03-23T10:01:16;15.00;99.90
5415;DHT22;2730;51.512;7.504;2023-03-23T10:03:45;15.00;99.90
5415;DHT22;2730;51.512;7.504;2023-03-23T10:06:14;14.90;99.90
5415;DHT22;2730;51.512;7.504;2023-03-23T10:08:49;15.10;99.90
5415;DHT22;2730;51.512;7.504;2023-03-23T10:11:23;15.20;99.90
5415;DHT22;2730;51.512;7.504;2023-03-23T10:14:00;15.70;99.90
5415;DHT22;2730;51.512;7.504;2023-03-23T10:16:33;15.80;99.90
5415;DHT22;2730;51.512;7.504;2023-03-23T10:19:07;15.90;99.90
5415;DHT22;2730;51.512;7.504;2023-03-23T10:21:41;15.70;99.90
5415;DHT22;2730;51.512;7.504;2023-03-23T10:24:15;15.40;99.90
5415;DHT22;2730;51.512;7.504;2023-03-23T10:26:48;15.10;99.90
5415;DHT22;2730;51.512;7.504;2023-03-23T10:29:20;15.00;99.90
5415;DHT22;2730;51.512;7.504;2023-03-23T10:31:51;14.90;99.90
5415;DHT22;2730;51.512;7.504;2023-03-23T10:34:23;14.70;99.90
5415;DHT22;2730;51.512;7.504;2023-03-23T10:36:56;14.40;99.90
5415;DHT22;2730;51.512;7.504;2023-03-23T10:39:31;13.00;99.90
5415;DHT22;2730;51.512;7.504;2023-03-23T10:42:00;11.90;99.90
5415;DHT22;2730;51.512;7.504;2023-03-23T10:44:33;11.40;99.90
5415;DHT22;2730;51.512;7.504;2023-03-23T10:47:02;11.10;99.90
5415;DHT22;2730;51.512;7.504;2023-03-23T10:49:34;10.90;99.90
5415;DHT22;2730;51.512;7.504;2023-03-23T10:52:06;11.00;99.90
5415;DHT22;2730;51.512;7.504;2023-03-23T10:54:45;11.00;99.90
5415;DHT22;2730;51.512;7.504;2023-03-23T10:57:21;11.10;99.90
5415;DHT22;2730;51.512;7.504;2023-03-23T10:59:49;11.00;99.90
5415;DHT22;2730;51.512;7.504;2023-03-23T11:02:18;11.20;99.90
5415;DHT22;2730;51.512;7.504;2023-03-23T11:04:53;11.40;99.90
5415;DHT22;2730;51.512;7.504;2023-03-23T11:07:25;12.00;99.90
5415;DHT22;2730;51.512;7.504;2023-03-23T11:09:56;12.40;99.90
5415;DHT22;2730;51.512;7.504;2023-03-23T11:12:24;12.40;99.90
5415;DHT22;2730;51.512;7.504;2023-03-23T11:14:51;12.20;99.90
5415;DHT22;2730;51.512;7.504;2023-03-23T11:17:23;12.10;99.90
5415;DHT22;2730;51.512;7.504;2023-03-23T11:19:50;11.90;99.90
5415;DHT22;2730;51.512;7.504;2023-03-23T11:22:22;12.20;99.90
5415;DHT22;2730;51.512;7.504;2023-03-23T11:24:53;12.10;99.90
5415;DHT22;2730;51.512;7.504;2023-03-23T11:27:23;12.20;99.90
5415;DHT22;2730;51.512;7.504;2023-03-23T11:29:52;12.30;99.90
5415;DHT22;2730;51.512;7.504;2023-03-23T11:32:23;12.40;99.90
5415;DHT22;2730;51.512;7.504;2023-03-23T11:34:54;12.40;99.90
5415;DHT22;2730;51.512;7.504;2023-03-23T11:37:28;12.30;99.90
5415;DHT22;2730;51.512;7.504;2023-03-23T11:39:58;12.20;99.90
5415;DHT22;2730;51.512;7.504;2023-03-23T11:42:35;12.20;99.90
5415;DHT22;2730;51.512;7.504;2023-03-23T11:45:21;12.10;99.90
5415;DHT22;2730;51.512;7.504;2023-03-23T11:47:59;12.00;99.90
5415;DHT22;2730;51.512;7.504;2023-03-23T11:50:31;12.00;99.90
5415;DHT22;2730;51.512;7.504;2023-03-23T11:53:02;11.90;99.90
5415;DHT22;2730;51.512;7.504;2023-03-23T11:55:37;11.90;99.90
5415;DHT22;2730;51.512;7.504;2023-03-23T11:58:12;11.90;99.90
5415;DHT22;2730;51.512;7.504;2023-03-23T12:00:43;11.80;99.90
5415;DHT22;2730;51.512;7.504;2023-03-23T12:03:39;11.70;99.90
5415;DHT22;2730;51.512;7.504;2023-03-23T12:06:13;11.40;99.90
5415;DHT22;2730;51.512;7.504;2023-03-23T12:08:52;11.40;99.90
5415;DHT22;2730;51.512;7.504;2023-03-23T12:11:27;11.50;99.90
5415;DHT22;2730;51.512;7.504;2023-03-23T12:14:10;11.60;99.90
5415;DHT22;2730;51.512;7.504;2023-03-23T12:16:48;11.70;99.90
5415;DHT22;2730;51.512;7.504;2023-03-23T12:19:24;11.80;99.90
5415;DHT22;2730;51.512;7.504;2023-03-23T12:21:58;11.80;99.90
5415;DHT22;2730;51.512;7.504;2023-03-23T12:24:40;12.00;99.90
5415;DHT22;2730;51.512;7.504;2023-03-23T12:27:18;12.00;99.90
5415;DHT22;2730;51.512;7.504;2023-03-23T12:29:58;12.00;99.90
5415;DHT22;2730;51.512;7.504;2023-03-23T12:32:37;12.10;99.90
5415;DHT22;2730;51.512;7.504;2023-03-23T12:35:18;12.20;99.90
5415;DHT22;2730;51.512;7.504;2023-03-23T12:38:00;12.20;99.90
5415;DHT22;2730;51.512;7.504;2023-03-23T12:40:55;12.30;99.90
5415;DHT22;2730;51.512;7.504;2023-03-23T12:43:30;12.20;99.90
5415;DHT22;2730;51.512;7.504;2023-03-23T12:46:11;12.10;99.90
5415;DHT22;2730;51.512;7.504;2023-03-23T12:48:43;12.00;99.90
5415;DHT22;2730;51.512;7.504;2023-03-23T12:51:17;12.00;99.90
5415;DHT22;2730;51.512;7.504;2023-03-23T12:53:52;12.10;99.90
5415;DHT22;2730;51.512;7.504;2023-03-23T12:56:25;12.10;99.90
5415;DHT22;2730;51.512;7.504;2023-03-23T12:58:57;12.10;99.90
5415;DHT22;2730;51.512;7.504;2023-03-23T13:01:30;12.00;99.90
5415;DHT22;2730;51.512;7.504;2023-03-23T13:04:01;11.90;99.90
5415;DHT22;2730;51.512;7.504;2023-03-23T13:06:34;12.00;99.90
5415;DHT22;2730;51.512;7.504;2023-03-23T13:09:04;12.00;99.90
5415;DHT22;2730;51.512;7.504;2023-03-23T13:11:36;12.00;99.90
5415;DHT22;2730;51.512;7.504;2023-03-23T13:14:18;11.80;99.90
5415;DHT22;2730;51.512;7.504;2023-03-23T13:16:52;11.80;99.90
5415;DHT22;2730;51.512;7.504;2023-03-23T13:19:27;11.70;99.90
5415;DHT22;2730;51.512;7.504;2023-03-23T13:22:01;11.60;99.90
5415;DHT22;2730;51.512;7.504;2023-03-23T13:24:32;11.70;99.90
5415;DHT22;2730;51.512;7.504;2023-03-23T13:27:01;11.80;99.90
5415;DHT22;2730;51.512;7.504;2023-03-23T13:29:28;11.80;99.90
5415;DHT22;2730;51.512;7.504;2023-03-23T13:32:09;12.00;99.90
5415;DHT22;2730;51.512;7.504;2023-03-23T13:34:38;12.00;99.90
5415;DHT22;2730;51.512;7.504;2023-03-23T13:37:10;12.00;99.90
5415;DHT22;2730;51.512;7.504;2023-03-23T13:39:48;12.00;99.90
5415;DHT22;2730;51.512;7.504;2023-03-23T13:42:21;12.10;99.90
5415;DHT22;2730;51.512;7.504;2023-03-23T13:45:08;12.00;99.90
5415;DHT22;2730;51.512;7.504;2023-03-23T13:47:45;12.20;99.90
5415;DHT22;2730;51.512;7.504;2023-03-23T13:50:25;12.40;99.90
5415;DHT22;2730;51.512;7.504;2023-03-23T13:52:58;12.50;99.90
5415;DHT22;2730;51.512;7.504;2023-03-23T13:55:40;12.60;99.90
5415;DHT22;2730;51.512;7.504;2023-03-23T13:58:20;12.80;99.90
5415;DHT22;2730;51.512;7.504;2023-03-23T14:00:50;12.90;99.90
5415;DHT22;2730;51.512;7.504;2023-03-23T14:03:35;13.00;99.90
5415;DHT22;2730;51.512;7.504;2023-03-23T14:06:05;13.10;99.90
5415;DHT22;2730;51.512;7.504;2023-03-23T14:08:41;13.00;99.90
5415;DHT22;2730;51.512;7.504;2023-03-23T14:11:14;13.10;99.90
5415;DHT22;2730;51.512;7.504;2023-03-23T14:13:46;13.10;99.90
5415;DHT22;2730;51.512;7.504;2023-03-23T14:16:19;13.00;99.90
5415;DHT22;2730;51.512;7.504;2023-03-23T14:18:53;13.00;99.90
5415;DHT22;2730;51.512;7.504;2023-03-23T14:21:32;13.00;99.90
5415;DHT22;2730;51.512;7.504;2023-03-23T14:24:03;12.90;99.90
5415;DHT22;2730;51.512;7.504;2023-03-23T14:26:33;12.90;99.90
5415;DHT22;2730;51.512;7.504;2023-03-23T14:29:01;12.90;99.90
5415;DHT22;2730;51.512;7.504;2023-03-23T14:31:29;13.00;99.90
5415;DHT22;2730;51.512;7.504;2023-03-23T14:34:03;13.00;99.90
5415;DHT22;2730;51.512;7.504;2023-03-23T14:36:31;13.10;99.90
5415;DHT22;2730;51.512;7.504;2023-03-23T14:39:01;13.20;99.90
5415;DHT22;2730;51.512;7.504;2023-03-23T14:41:30;13.30;99.90
5415;DHT22;2730;51.512;7.504;2023-03-23T14:44:00;13.40;99.90
5415;DHT22;2730;51.512;7.504;2023-03-23T14:46:27;13.30;99.90
5415;DHT22;2730;51.512;7.504;2023-03-23T14:48:58;13.30;99.90
5415;DHT22;2730;51.512;7.504;2023-03-23T14:51:26;13.30;99.90
5415;DHT22;2730;51.512;7.504;2023-03-23T14:53:53;13.20;99.90
5415;DHT22;2730;51.512;7.504;2023-03-23T14:56:22;13.20;99.90
5415;DHT22;2730;51.512;7.504;2023-03-23T14:58:53;13.30;99.90
5415;DHT22;2730;51.512;7.504;2023-03-23T15:01:24;13.50;99.90
5415;DHT22;2730;51.512;7.504;2023-03-23T15:03:53;13.40;99.90
5415;DHT22;2730;51.512;7.504;2023-03-23T15:06:26;13.30;99.90
5415;DHT22;2730;51.512;7.504;2023-03-23T15:08:55;13.20;99.90
5415;DHT22;2730;51.512;7.504;2023-03-23T15:11:24;13.20;99.90
5415;DHT22;2730;51.512;7.504;2023-03-23T15:13:55;13.20;99.90
5415;DHT22;2730;51.512;7.504;2023-03-23T15:16:26;13.20;99.90
5415;DHT22;2730;51.512;7.504;2023-03-23T15:18:55;13.20;99.90
5415;DHT22;2730;51.512;7.504;2023-03-23T15:21:27;13.20;99.90
5415;DHT22;2730;51.512;7.504;2023-03-23T15:23:54;13.10;99.90
5415;DHT22;2730;51.512;7.504;2023-03-23T15:26:28;13.00;99.90
5415;DHT22;2730;51.512;7.504;2023-03-23T15:29:08;12.90;99.90
5415;DHT22;2730;51.512;7.504;2023-03-23T15:31:39;13.00;99.90
5415;DHT22;2730;51.512;7.504;2023-03-23T15:34:15;13.10;99.90
5415;DHT22;2730;51.512;7.504;2023-03-23T15:36:44;13.10;99.90
5415;DHT22;2730;51.512;7.504;2023-03-23T15:39:12;13.20;99.90
5415;DHT22;2730;51.512;7.504;2023-03-23T15:41:47;13.20;99.90
5415;DHT22;2730;51.512;7.504;2023-03-23T15:44:29;13.30;99.90
5415;DHT22;2730;51.512;7.504;2023-03-23T15:47:32;13.50;99.90
5415;DHT22;2730;51.512;7.504;2023-03-23T15:50:04;13.50;99.90
5415;DHT22;2730;51.512;7.504;2023-03-23T15:52:32;13.60;99.90
5415;DHT22;2730;51.512;7.504;2023-03-23T15:54:59;13.50;99.90
5415;DHT22;2730;51.512;7.504;2023-03-23T15:57:26;13.50;99.90
5415;DHT22;2730;51.512;7.504;2023-03-23T15:59:52;13.40;99.90
5415;DHT22;2730;51.512;7.504;2023-03-23T16:02:21;13.40;99.90
5415;DHT22;2730;51.512;7.504;2023-03-23T16:04:50;13.40;99.90
5415;DHT22;2730;51.512;7.504;2023-03-23T16:07:20;13.40;99.90
5415;DHT22;2730;51.512;7.504;2023-03-23T16:09:49;13.40;99.90
5415;DHT22;2730;51.512;7.504;2023-03-23T16:12:15;13.30;99.90
5415;DHT22;2730;51.512;7.504;2023-03-23T16:14:42;13.40;99.90
5415;DHT22;2730;51.512;7.504;2023-03-23T16:17:11;13.40;99.90
5415;DHT22;2730;51.512;7.504;2023-03-23T16:19:40;13.40;99.90
5415;DHT22;2730;51.512;7.504;2023-03-23T16:22:08;13.30;99.90
5415;DHT22;2730;51.512;7.504;2023-03-23T16:24:35;13.20;99.90
5415;DHT22;2730;51.512;7.504;2023-03-23T16:27:03;13.20;99.90
5415;DHT22;2730;51.512;7.504;2023-03-23T16:29:30;13.20;99.90